createdAt,value
2022-07-30T00:01:31.512Z,-27
2022-07-30T00:03:32.784Z,-27.1
2022-07-30T00:05:33.706Z,-27
2022-07-30T00:07:34.744Z,-27.3
2022-07-30T00:09:36.264Z,-27.1
2022-07-30T00:11:37.671Z,-27
2022-07-30T00:13:38.648Z,-27.3
2022-07-30T00:15:39.547Z,-27.1
2022-07-30T00:17:40.720Z,-26.8
2022-07-30T00:19:42.043Z,-26.7
2022-07-30T00:21:43.064Z,-27
2022-07-30T00:23:51.104Z,-26.8
2022-07-30T00:27:46.946Z,-26.8
2022-07-30T00:29:48.671Z,-26.6
2022-07-30T00:31:50.162Z,-26.8
2022-07-30T00:33:51.209Z,-27
2022-07-30T00:37:53.924Z,-26.7
2022-07-30T00:39:55.740Z,-26.9
2022-07-30T00:41:57.485Z,-27
2022-07-30T00:43:59.147Z,-27
2022-07-30T00:50:03.175Z,-27
2022-07-30T00:52:04.106Z,-27.2
2022-07-30T00:54:05.567Z,-26.9
2022-07-30T00:56:06.874Z,-26.9
2022-07-30T01:00:08.843Z,-27.1
2022-07-30T01:06:14.348Z,-27
2022-07-30T01:08:14.675Z,-27.2
2022-07-30T01:10:16.033Z,-27.1
2022-07-30T01:12:17.702Z,-27.1
2022-07-30T01:14:19.317Z,-27.2
2022-07-30T01:16:20.490Z,-27.3
2022-07-30T01:18:21.841Z,-27.4
2022-07-30T01:20:23.745Z,-27.5
2022-07-30T01:22:27.841Z,-27.6
2022-07-30T01:24:27.149Z,-27.6
2022-07-30T01:27:13.619Z,-27.3
2022-07-30T01:29:13.308Z,-27.4
2022-07-30T01:31:14.519Z,-27.6
2022-07-30T01:33:15.675Z,-27.4
2022-07-30T01:35:16.686Z,-27.3
2022-07-30T01:37:17.776Z,-27.4
2022-07-30T01:39:19.393Z,-27.7
2022-07-30T01:41:20.942Z,-27.5
2022-07-30T01:43:22.116Z,-27.5
2022-07-30T01:45:23.517Z,-27.6
2022-07-30T01:47:25.003Z,-27.6
2022-07-30T01:49:26.404Z,-27.8
2022-07-30T01:51:33.499Z,-28
2022-07-30T01:53:29.161Z,-27.8
2022-07-30T01:57:32.070Z,-27.8
2022-07-30T01:59:33.703Z,-27.7
2022-07-30T02:01:35.189Z,-27.8
2022-07-30T02:03:36.620Z,-27.6
2022-07-30T02:05:38.412Z,-27.9
2022-07-30T02:07:39.745Z,-27.8
2022-07-30T02:09:44.431Z,-27.7
2022-07-30T02:11:42.468Z,-27.8
2022-07-30T02:13:44.259Z,-27.5
2022-07-30T02:15:45.602Z,-27.5
2022-07-30T02:17:47.473Z,-27.7
2022-07-30T02:19:48.434Z,-27.7
2022-07-30T02:21:50.416Z,-26.3
2022-07-30T02:23:51.709Z,-26.3
2022-07-30T02:25:52.612Z,-26.1
2022-07-30T02:27:53.563Z,-26.3
2022-07-30T02:29:54.616Z,-26.2
2022-07-30T02:31:56.197Z,-26.3
2022-07-30T02:33:58.008Z,-26.2
2022-07-30T02:35:59.652Z,-26.1
2022-07-30T02:38:01.036Z,-26.2
2022-07-30T02:40:01.977Z,-26.2
2022-07-30T02:42:02.926Z,-26.1
2022-07-30T02:46:05.621Z,-26.2
2022-07-30T02:48:06.951Z,-26.2
2022-07-30T02:50:08.414Z,-26
2022-07-30T02:52:09.695Z,-26.6
2022-07-30T02:56:11.989Z,-26
2022-07-30T02:58:13.604Z,-26.3
2022-07-30T03:00:14.628Z,-26.1
2022-07-30T03:02:16.134Z,-26.3
2022-07-30T03:04:17.127Z,-26
2022-07-30T03:06:18.819Z,-26.3
2022-07-30T03:08:20.287Z,-26.2
2022-07-30T03:10:21.876Z,-26.1
2022-07-30T03:12:23.103Z,-26.3
2022-07-30T03:14:24.927Z,-26.2
2022-07-30T03:16:26.759Z,-26.3
2022-07-30T03:18:28.449Z,-26.3
2022-07-30T03:22:33.201Z,-26
2022-07-30T03:24:33.420Z,-26.4
2022-07-30T03:26:34.921Z,-26.2
2022-07-30T03:28:36.581Z,-26.5
2022-07-30T03:34:40.649Z,-26.1
2022-07-30T03:36:41.650Z,-26.3
2022-07-30T03:38:43.181Z,-25.7
2022-07-30T03:40:44.694Z,-26.3
2022-07-30T03:42:45.950Z,-25.9
2022-07-30T03:44:46.999Z,-26.2
2022-07-30T03:48:49.934Z,-26.1
2022-07-30T03:50:50.900Z,-26.2
2022-07-30T03:52:52.699Z,-26.5
2022-07-30T03:54:54.492Z,-26.1
2022-07-30T03:58:57.871Z,-26.3
2022-07-30T04:00:58.903Z,-26.3
2022-07-30T04:07:03.408Z,-26.1
2022-07-30T04:09:04.115Z,-26.1
2022-07-30T04:11:05.929Z,-26
2022-07-30T04:13:09.546Z,-26.3
2022-07-30T04:17:11.118Z,-26
2022-07-30T04:19:12.567Z,-26.5
2022-07-30T04:21:16.165Z,-26
2022-07-30T04:23:15.075Z,-26
2022-07-30T04:25:18.442Z,-26
2022-07-30T04:27:18.119Z,-26.3
2022-07-30T04:33:21.764Z,-26
2022-07-30T04:35:23.939Z,-26
2022-07-30T04:37:24.678Z,-26.1
2022-07-30T04:39:25.795Z,-26.3
2022-07-30T04:41:27.170Z,-26.1
2022-07-30T04:43:28.725Z,-26.1
2022-07-30T04:45:30.247Z,-26.2
2022-07-30T04:47:31.906Z,-26.1
2022-07-30T04:49:33.494Z,-26.1
2022-07-30T04:51:34.791Z,-26.2
2022-07-30T04:53:36.646Z,-26.1
2022-07-30T04:55:37.889Z,-25.9
2022-07-30T04:57:39.652Z,-26.2
2022-07-30T04:59:41.147Z,-26.1
2022-07-30T05:01:42.227Z,-26.2
2022-07-30T05:03:43.652Z,-25.9
2022-07-30T05:05:44.877Z,-24.2
2022-07-30T05:07:45.970Z,-26.1
2022-07-30T05:09:46.996Z,-26.7
2022-07-30T05:11:48.521Z,-26.2
2022-07-30T05:13:49.873Z,-26
2022-07-30T05:15:51.590Z,-26.3
2022-07-30T05:17:52.931Z,-26.1
2022-07-30T05:19:54.784Z,-26
2022-07-30T05:21:56.470Z,-25.8
2022-07-30T05:23:57.955Z,-17.6
2022-07-30T05:25:59.483Z,-22.5
2022-07-30T05:32:03.778Z,-0.1
2022-07-30T05:34:05.584Z,2.8
2022-07-30T05:36:07.053Z,3.4
2022-07-30T05:38:08.185Z,17.2
2022-07-30T05:40:10.032Z,20.9
2022-07-30T05:42:12.053Z,5.1
2022-07-30T05:44:12.774Z,25.2
2022-07-30T05:46:14.312Z,-0.3
2022-07-30T05:48:16.180Z,-13.7
2022-07-30T05:52:27.668Z,16.9
2022-07-30T05:54:19.979Z,33.4
2022-07-30T05:56:21.075Z,47.7
2022-07-30T05:58:21.992Z,34.59
2022-07-30T06:02:24.810Z,69.5
2022-07-30T06:04:26.469Z,77.69
2022-07-30T06:06:27.464Z,6.8
2022-07-30T06:08:28.280Z,13.9
2022-07-30T06:12:31.040Z,77
2022-07-30T06:14:32.138Z,43
2022-07-30T06:16:33.889Z,76.6
2022-07-30T06:18:35.287Z,3.5
2022-07-30T06:20:36.673Z,75.19
2022-07-30T06:24:39.795Z,74.1
2022-07-30T06:26:40.763Z,73.1
2022-07-30T06:28:41.698Z,72.69
2022-07-30T06:30:43.189Z,71.69
2022-07-30T06:32:44.618Z,71.8
2022-07-30T06:34:45.418Z,70.4
2022-07-30T06:36:46.723Z,70
2022-07-30T06:38:47.527Z,69.6
2022-07-30T06:40:49.198Z,68.9
2022-07-30T06:42:50.742Z,66.9
2022-07-30T06:50:55.946Z,62.7
2022-07-30T06:57:00.428Z,58.9
2022-07-30T06:59:01.881Z,58.5
2022-07-30T07:01:03.512Z,56.2
2022-07-30T07:03:06.578Z,55.3
2022-07-30T07:05:05.573Z,52.8
2022-07-30T07:07:12.385Z,53.5
2022-07-30T07:11:09.614Z,48.6
2022-07-30T07:13:10.742Z,46.6
2022-07-30T07:15:11.934Z,44.7
2022-07-30T07:17:13.483Z,43.4
2022-07-30T07:19:15.040Z,42
2022-07-30T07:21:16.586Z,40
2022-07-30T07:23:19.705Z,41.8
2022-07-30T07:25:18.288Z,37.8
2022-07-30T07:27:20.821Z,37.09
2022-07-30T07:29:22.168Z,34
2022-07-30T07:32:04.478Z,33.4
2022-07-30T07:37:28.344Z,26.6
2022-07-30T07:39:29.319Z,26.3
2022-07-30T07:41:30.376Z,23.1
2022-07-30T07:43:31.911Z,22.2
2022-07-30T07:45:33.568Z,21.2
2022-07-30T07:47:34.804Z,18.79
2022-07-30T07:49:36.524Z,18.6
2022-07-30T07:55:40.290Z,15.7
2022-07-30T07:57:41.429Z,14.9
2022-07-30T07:59:42.946Z,14.8
2022-07-30T08:01:44.516Z,12
2022-07-30T08:03:45.652Z,11.3
2022-07-30T08:05:54.045Z,11
2022-07-30T08:07:48.395Z,8.39
2022-07-30T08:09:49.478Z,8.7
2022-07-30T08:11:50.802Z,6.8
2022-07-30T08:12:34.542Z,-26.3
2022-07-30T08:16:37.126Z,-26.1
2022-07-30T08:20:39.603Z,-26.4
2022-07-30T08:22:40.695Z,-26.2
2022-07-30T08:24:41.867Z,-26.3
2022-07-30T08:26:43.171Z,-26.6
2022-07-30T08:30:46.504Z,-26.2
2022-07-30T08:32:48.098Z,-26.1
2022-07-30T08:34:49.848Z,-26.1
2022-07-30T08:38:52.277Z,-26.1
2022-07-30T08:40:53.477Z,-26.5
2022-07-30T08:42:54.561Z,-26.3
2022-07-30T08:44:55.628Z,-26
2022-07-30T08:46:56.462Z,-26.7
2022-07-30T08:48:57.922Z,-26.5
2022-07-30T08:50:58.813Z,-26.3
2022-07-30T08:52:59.597Z,-26.2
2022-07-30T08:55:00.716Z,-26.5
2022-07-30T08:57:01.712Z,-26.1
2022-07-30T08:59:02.556Z,-26
2022-07-30T09:03:04.369Z,-26.1
2022-07-30T09:05:05.737Z,-26.1
2022-07-30T09:07:06.829Z,-26.2
2022-07-30T09:09:08.003Z,-26.3
2022-07-30T09:13:11.797Z,-26.2
2022-07-30T09:15:11.938Z,-26.6
2022-07-30T09:17:13.185Z,-26.3
2022-07-30T09:19:14.979Z,-26.1
2022-07-30T09:21:15.908Z,-26.3
2022-07-30T09:23:17.744Z,-26.2
2022-07-30T09:29:21.442Z,-26.1
2022-07-30T09:31:22.336Z,-26.1
2022-07-30T09:33:23.649Z,-26.1
2022-07-30T09:35:24.690Z,-26.5
2022-07-30T09:39:27.657Z,-26.2
2022-07-30T09:41:38.590Z,-26.1
2022-07-30T09:43:29.815Z,-26.3
2022-07-30T09:45:34.972Z,-26.2
2022-07-30T09:47:32.576Z,-26.1
2022-07-30T09:49:34.104Z,-26.1
2022-07-30T09:51:49.284Z,-26.2
2022-07-30T09:53:37.141Z,-26
2022-07-30T09:55:41.152Z,-26.2
2022-07-30T09:57:39.220Z,-26.3
2022-07-30T09:59:40.965Z,-26.4
2022-07-30T10:01:46.993Z,-26.1
2022-07-30T10:03:43.367Z,-26.1
2022-07-30T10:05:44.685Z,-26.1
2022-07-30T10:07:45.523Z,-26
2022-07-30T10:09:47.022Z,-26
2022-07-30T10:13:48.106Z,-26.1
2022-07-30T10:15:49.697Z,-26.4
2022-07-30T10:17:50.577Z,-26
2022-07-30T10:19:51.384Z,-26.4
2022-07-30T10:21:53.141Z,-26.2
2022-07-30T10:23:54.487Z,-25.9
2022-07-30T10:25:56.049Z,-26.1
2022-07-30T10:27:58.138Z,-26.2
2022-07-30T10:29:58.768Z,-26.2
2022-07-30T10:31:59.663Z,-25.9
2022-07-30T10:34:01.245Z,-26.1
2022-07-30T10:36:02.469Z,-26.3
2022-07-30T10:38:03.436Z,-26.1
2022-07-30T10:40:04.759Z,-26.3
2022-07-30T10:44:08.197Z,-26.3
2022-07-30T10:46:12.212Z,-26.1
2022-07-30T10:48:18.572Z,-26.6
2022-07-30T10:50:11.960Z,-26.3
2022-07-30T10:52:12.872Z,-26.2
2022-07-30T10:54:13.767Z,-26.2
2022-07-30T10:56:14.877Z,-26.2
2022-07-30T10:58:17.884Z,-26.2
2022-07-30T11:00:18.032Z,-26.5
2022-07-30T11:02:19.677Z,-26.1
2022-07-30T11:08:21.984Z,-26.1
2022-07-30T11:10:22.954Z,-26.3
2022-07-30T11:12:24.127Z,-26
2022-07-30T11:14:25.895Z,-26.2
2022-07-30T11:16:27.264Z,-26.1
2022-07-30T11:18:28.591Z,-26.2
2022-07-30T11:20:28.921Z,-26.2
2022-07-30T11:22:30.623Z,-26.1
2022-07-30T11:24:31.626Z,-26.1
2022-07-30T11:26:33.251Z,-26.2
2022-07-30T11:28:34.371Z,-26.3
2022-07-30T11:30:36.153Z,-25.9
2022-07-30T11:32:37.548Z,-26
2022-07-30T11:34:39.042Z,-26.2
2022-07-30T11:36:40.724Z,-26.2
2022-07-30T11:38:42.324Z,-26
2022-07-30T11:42:45.660Z,-26.2
2022-07-30T11:44:47.240Z,-26.1
2022-07-30T11:46:48.126Z,-26
2022-07-30T11:48:49.828Z,-26.1
2022-07-30T11:54:53.727Z,-26.3
2022-07-30T11:56:55.255Z,-26.2
2022-07-30T11:58:56.899Z,-26.3
2022-07-30T12:00:57.942Z,-26.3
2022-07-30T12:03:01.049Z,-26.1
2022-07-30T12:05:00.216Z,-26.5
2022-07-30T12:07:01.733Z,-26
2022-07-30T12:09:02.291Z,-26.1
2022-07-30T12:11:03.822Z,-26
2022-07-30T12:13:05.302Z,-26.1
2022-07-30T12:15:06.943Z,-25.9
2022-07-30T12:17:09.808Z,-26
2022-07-30T12:19:09.583Z,-26.1
2022-07-30T12:21:10.689Z,-26
2022-07-30T12:23:11.961Z,-26.3
2022-07-30T12:25:13.656Z,-26.1
2022-07-30T12:27:14.769Z,-26.1
2022-07-30T12:31:17.465Z,-26.3
2022-07-30T12:33:18.789Z,-26.2
2022-07-30T12:35:20.471Z,-26.3
2022-07-30T12:37:21.649Z,-26.3
2022-07-30T12:39:23.080Z,-26
2022-07-30T12:41:23.832Z,-26.1
2022-07-30T12:43:24.820Z,-26
2022-07-30T12:45:26.540Z,-26.5
2022-07-30T12:47:28.093Z,-26.3
2022-07-30T12:49:36.419Z,-26.3
2022-07-30T12:51:31.047Z,-26.1
2022-07-30T12:53:31.823Z,-26.4
2022-07-30T12:55:32.813Z,-26.5
2022-07-30T12:57:33.942Z,-26.2
2022-07-30T13:01:36.347Z,-26.2
2022-07-30T13:03:37.217Z,-26.5
2022-07-30T13:05:38.049Z,-26.2
2022-07-30T13:07:38.957Z,-26.2
2022-07-30T13:09:39.955Z,-26.5
2022-07-30T13:11:41.038Z,-26.3
2022-07-30T13:13:41.911Z,-26.2
2022-07-30T13:15:46.380Z,-26.2
2022-07-30T13:17:44.931Z,-25.9
2022-07-30T13:19:46.153Z,-26
2022-07-30T13:23:49.197Z,-26.1
2022-07-30T13:25:50.449Z,-26.1
2022-07-30T13:29:52.679Z,62.5
2022-07-30T13:31:53.513Z,64.3
2022-07-30T13:35:55.884Z,61.7
2022-07-30T13:37:57.181Z,60.2
2022-07-30T13:39:58.594Z,58.7
2022-07-30T13:41:59.789Z,57.2
2022-07-30T13:44:01.113Z,55.2
2022-07-30T13:46:02.126Z,53.1
2022-07-30T13:52:05.754Z,46.2
2022-07-30T13:54:06.936Z,41.3
2022-07-30T13:56:09.246Z,39.8
2022-07-30T13:58:08.977Z,37.5
2022-07-30T14:00:10.542Z,35.3
2022-07-30T14:02:12.199Z,33.09
2022-07-30T14:06:14.960Z,28.4
2022-07-30T14:08:16.482Z,25.9
2022-07-30T14:10:17.857Z,25.4
2022-07-30T14:12:19.290Z,22.5
2022-07-30T14:18:23.244Z,17.6
2022-07-30T14:20:24.544Z,16.6
2022-07-30T14:22:25.542Z,14.5
2022-07-30T14:24:26.304Z,16
2022-07-30T14:26:30.087Z,14.4
2022-07-30T14:28:29.491Z,12.6
2022-07-30T14:30:31.019Z,13.5
2022-07-30T14:32:32.715Z,10.9
2022-07-30T14:34:33.467Z,10.8
2022-07-30T14:38:35.981Z,8.7
2022-07-30T14:40:36.874Z,-26.2
2022-07-30T14:42:38.301Z,-26.2
2022-07-30T14:44:39.349Z,-26
2022-07-30T14:46:51.877Z,-26
2022-07-30T14:48:41.551Z,-26.4
2022-07-30T14:50:57.151Z,-26.6
2022-07-30T14:52:44.335Z,-26.3
2022-07-30T14:54:45.732Z,-26.5
2022-07-30T14:56:46.664Z,-26.7
2022-07-30T14:57:30.316Z,-25.8
2022-07-30T14:59:31.681Z,-26.2
2022-07-30T15:01:33.253Z,-26.3
2022-07-30T15:05:36.301Z,-26.1
2022-07-30T15:07:37.977Z,-26.1
2022-07-30T15:09:39.634Z,-26.2
2022-07-30T15:12:04.660Z,-26
2022-07-30T15:13:49.595Z,-26
2022-07-30T15:15:45.225Z,-26.3
2022-07-30T15:17:46.148Z,-26.3
2022-07-30T15:19:50.162Z,-26.2
2022-07-30T15:21:48.349Z,-26
2022-07-30T15:27:52.696Z,-26.2
2022-07-30T15:29:53.533Z,-26
2022-07-30T15:31:54.313Z,-26.1
2022-07-30T15:33:55.715Z,-26.3
2022-07-30T15:35:57.439Z,-26.1
2022-07-30T15:37:58.792Z,-26.4
2022-07-30T15:42:00.956Z,-26.2
2022-07-30T15:44:01.456Z,-26.3
2022-07-30T15:46:02.743Z,-26.3
2022-07-30T15:48:03.857Z,-26.1
2022-07-30T15:54:07.619Z,-26.1
2022-07-30T15:56:08.982Z,-26.2
2022-07-30T15:58:10.192Z,-26.5
2022-07-30T16:00:11.582Z,-26
2022-07-30T16:02:13.270Z,-26.2
2022-07-30T16:04:19.225Z,-26.1
2022-07-30T16:06:16.180Z,-25.9
2022-07-30T16:08:17.294Z,-26.3
2022-07-30T16:10:18.803Z,-26.4
2022-07-30T16:12:20.154Z,-26.1
2022-07-30T16:16:22.618Z,-26.2
2022-07-30T16:18:23.753Z,-26.4
2022-07-30T16:20:24.706Z,-26.1
2022-07-30T16:22:25.738Z,-26.2
2022-07-30T16:24:26.743Z,-26.1
2022-07-30T16:26:28.118Z,-26.3
2022-07-30T16:28:29.193Z,-26.3
2022-07-30T16:30:30.030Z,-26.3
2022-07-30T16:32:31.064Z,-26.2
2022-07-30T16:34:32.104Z,-26.2
2022-07-30T16:36:33.795Z,-26.4
2022-07-30T16:38:35.065Z,-26.3
2022-07-30T16:40:36.447Z,-26.5
2022-07-30T16:42:37.991Z,-26
2022-07-30T16:44:39.417Z,-26.5
2022-07-30T16:50:43.919Z,-26.2
2022-07-30T16:52:45.632Z,-26.1
2022-07-30T16:54:47.026Z,-26
2022-07-30T16:56:48.443Z,-26.3
2022-07-30T16:58:49.411Z,-26.2
2022-07-30T17:00:50.920Z,-26.3
2022-07-30T17:02:52.353Z,-26.2
2022-07-30T17:06:55.601Z,-26.2
2022-07-30T17:08:57.048Z,-26.3
2022-07-30T17:10:58.041Z,-26.1
2022-07-30T17:12:59.092Z,-26.3
2022-07-30T17:15:00.802Z,-26.2
2022-07-30T17:17:01.706Z,-26.5
2022-07-30T17:19:08.193Z,-26.2
2022-07-30T17:21:04.307Z,-26.1
2022-07-30T17:23:05.126Z,-26.5
2022-07-30T17:25:06.901Z,-26.1
2022-07-30T17:29:13.858Z,-26.6
2022-07-30T17:33:12.786Z,-26.5
2022-07-30T17:35:14.426Z,-26.2
2022-07-30T17:40:01.452Z,-26.2
2022-07-30T17:41:18.008Z,-26.1
2022-07-30T17:43:19.119Z,-26.1
2022-07-30T17:45:20.350Z,-26.3
2022-07-30T17:49:23.096Z,-26.3
2022-07-30T17:51:24.826Z,-26.1
2022-07-30T17:53:25.725Z,-26.4
2022-07-30T17:55:27.337Z,-26.5
2022-07-30T17:59:29.786Z,-25.8
2022-07-30T18:01:31.366Z,-26.4
2022-07-30T18:03:32.603Z,-26.2
2022-07-30T18:05:33.820Z,-26.1
2022-07-30T18:07:35.057Z,-26.3
2022-07-30T18:09:39.083Z,-26.2
2022-07-30T18:15:41.214Z,-26
2022-07-30T18:21:45.351Z,-25.9
2022-07-30T18:23:46.579Z,-26.2
2022-07-30T18:25:51.467Z,-25.9
2022-07-30T18:27:49.082Z,-25.9
2022-07-30T18:29:49.958Z,-26
2022-07-30T18:31:51.377Z,-26.2
2022-07-30T18:35:54.521Z,-26.2
2022-07-30T18:37:56.027Z,-26.2
2022-07-30T18:39:56.922Z,-26
2022-07-30T18:41:58.105Z,-26.1
2022-07-30T18:48:02.121Z,-26.1
2022-07-30T18:50:03.082Z,-26.3
2022-07-30T18:52:04.703Z,-26.2
2022-07-30T18:54:06.099Z,-26.3
2022-07-30T18:56:07.570Z,-26.1
2022-07-30T18:58:08.885Z,-26.1
2022-07-30T19:00:10.509Z,-25.6
2022-07-30T19:02:12.362Z,-26.2
2022-07-30T19:04:13.482Z,-26.1
2022-07-30T19:06:14.517Z,-26.3
2022-07-30T19:08:15.644Z,-26
2022-07-30T19:10:17.466Z,-25.4
2022-07-30T19:12:19.089Z,-25.8
2022-07-30T19:14:20.591Z,-25.9
2022-07-30T19:20:24.880Z,-25.7
2022-07-30T19:22:29.492Z,-25.6
2022-07-30T19:24:27.749Z,-25.8
2022-07-30T19:26:28.964Z,-25.8
2022-07-30T19:28:30.260Z,-26.2
2022-07-30T19:30:31.726Z,-26
2022-07-30T19:34:34.560Z,-25.4
2022-07-30T19:36:35.732Z,-26.2
2022-07-30T19:38:36.648Z,-25.4
2022-07-30T19:40:37.526Z,-26.2
2022-07-30T19:46:41.808Z,-26
2022-07-30T19:48:43.427Z,-25.9
2022-07-30T19:50:44.952Z,-25.8
2022-07-30T19:52:51.086Z,-26
2022-07-30T19:54:47.334Z,-25.9
2022-07-30T19:56:48.625Z,-25.9
2022-07-30T19:58:49.962Z,-25.8
2022-07-30T20:00:51.082Z,-25.9
2022-07-30T20:02:52.621Z,-26.1
2022-07-30T20:04:53.778Z,-26.2
2022-07-30T20:06:54.979Z,-25.9
2022-07-30T20:08:56.299Z,-25.9
2022-07-30T20:12:58.959Z,-25.7
2022-07-30T20:14:59.910Z,-25.9
2022-07-30T20:17:02.249Z,-25.8
2022-07-30T20:19:03.266Z,-26
2022-07-30T20:23:05.486Z,-26
2022-07-30T20:25:07.064Z,-26
2022-07-30T20:27:10.194Z,-26
2022-07-30T20:29:15.735Z,-25.7
2022-07-30T20:31:11.414Z,-25.8
2022-07-30T20:33:12.475Z,-26.1
2022-07-30T20:35:14.193Z,-25.9
2022-07-30T20:37:16.619Z,-25.9
2022-07-30T20:39:18.275Z,-25.8
2022-07-30T20:45:21.338Z,-26
2022-07-30T20:47:26.259Z,-25.8
2022-07-30T20:49:24.212Z,-26
2022-07-30T20:51:33.048Z,-26.1
2022-07-30T20:53:33.399Z,-26.1
2022-07-30T20:55:28.018Z,-26
2022-07-30T20:59:31.172Z,-26.1
2022-07-30T21:01:32.329Z,-26.1
2022-07-30T21:03:33.501Z,-26.2
2022-07-30T21:05:34.929Z,-26.1
2022-07-30T21:11:39.267Z,-25.9
2022-07-30T21:15:45.797Z,-25.8
2022-07-30T21:17:43.265Z,-26
2022-07-30T21:19:45.084Z,-25.8
2022-07-30T21:21:47.862Z,-25.6
2022-07-30T21:23:47.626Z,-26
2022-07-30T21:26:00.315Z,-25.9
2022-07-30T21:27:50.941Z,-25.8
2022-07-30T21:29:52.064Z,-26
2022-07-30T21:31:58.162Z,-25.9
2022-07-30T21:33:54.128Z,-25.9
2022-07-30T21:35:55.913Z,-26.1
2022-07-30T21:37:57.067Z,-25.9
2022-07-30T21:39:58.781Z,-26
2022-07-30T21:42:00.611Z,-25.9
2022-07-30T21:44:45.184Z,-25.9
2022-07-30T21:46:47.048Z,-26
2022-07-30T21:48:49.457Z,-25.7
2022-07-30T21:52:51.496Z,-26.2
2022-07-30T21:54:53.141Z,-25.8
2022-07-30T21:56:54.073Z,-26
2022-07-30T21:58:55.738Z,-26.2
2022-07-30T22:04:59.725Z,-26.1
2022-07-30T22:07:01.909Z,-26
2022-07-30T22:09:02.677Z,-25.9
2022-07-30T22:11:03.197Z,-26.5
2022-07-30T22:13:04.394Z,-26.4
2022-07-30T22:15:05.577Z,-26.5
2022-07-30T22:19:08.383Z,-26.4
2022-07-30T22:21:09.548Z,-26.5
2022-07-30T22:23:11.401Z,-26
2022-07-30T22:25:12.972Z,-26.3
2022-07-30T22:27:14.977Z,-26.4
2022-07-30T22:29:15.913Z,-26.5
2022-07-30T22:31:17.649Z,-26.4
2022-07-30T22:33:19.130Z,-26.5
2022-07-30T22:35:20.637Z,-26.7
2022-07-30T22:37:21.733Z,-26.3
2022-07-30T22:41:24.234Z,-26.6
2022-07-30T22:43:25.392Z,-26.5
2022-07-30T22:45:34.067Z,-26.6
2022-07-30T22:47:50.478Z,-26.2
2022-07-30T22:49:50.337Z,-26.4
2022-07-30T22:51:58.707Z,-26.2
2022-07-30T22:54:10.223Z,-26.3
2022-07-30T22:55:33.567Z,-26.1
2022-07-30T22:57:37.620Z,-26.1
2022-07-30T23:03:40.087Z,-26.3
2022-07-30T23:05:41.589Z,-26.2
2022-07-30T23:07:42.700Z,-26.2
2022-07-30T23:09:49.313Z,-26
2022-07-30T23:11:44.968Z,-26.4
2022-07-30T23:12:29.847Z,-26.1
2022-07-30T23:13:46.681Z,-26.2
2022-07-30T23:17:49.450Z,-26.6
2022-07-30T23:19:51.074Z,-26.2
2022-07-30T23:21:52.069Z,-26.5
2022-07-30T23:23:53.652Z,-26.2
2022-07-30T23:29:57.276Z,-26.1
2022-07-30T23:31:58.282Z,-26.1
2022-07-30T23:33:59.487Z,-26.2
2022-07-30T23:36:01.082Z,-26.3
2022-07-30T23:38:02.119Z,-26.1
2022-07-30T23:40:03.540Z,-26.3
2022-07-30T23:44:06.961Z,-26.3
2022-07-30T23:46:09.501Z,-26.3
2022-07-30T23:50:10.768Z,-26
2022-07-30T23:52:12.167Z,-26.1
2022-07-30T23:54:13.580Z,-26.2
2022-07-30T23:56:15.122Z,-26.1
2022-07-30T23:58:16.321Z,-26.1
